Terminal Aerodrome Forecast
Issued by NWS

Home | Current Version | Previous Version | Text Only | Print | Product List | Glossary On
Versions: 1 2 3 4 5 6 7 8 9 10 11 12 13 14 15 16 17 18 19 20 21 22 23 24
000
FTUS41 KCAR 260534
TAFBHB
TAF
KBHB 260534Z 2606/2706 33006KT P6SM SKC
     FM261500 01004KT P6SM SCT150 BKN200
     FM270200 02008KT P6SM BKN080 OVC200
     FM270500 03012G18KT P6SM SCT040 OVC070
      AMD LTD TO CLD VIS AND WIND=

USA.gov is the U.S. government's official web portal to all federal, state and local government web resources and services.